createdAt,value
2018-04-11T00:00:28.622Z,90.00
2018-04-11T00:02:56.139Z,89.90
2018-04-11T00:05:24.462Z,91.30
2018-04-11T00:07:51.969Z,91.30
2018-04-11T00:10:20.242Z,90.80
2018-04-11T00:12:48.534Z,90.50
2018-04-11T00:15:16.841Z,90.90
2018-04-11T00:17:44.939Z,90.90
2018-04-11T00:20:12.522Z,90.50
2018-04-11T00:22:40.083Z,90.60
2018-04-11T00:25:07.638Z,90.30
2018-04-11T00:27:35.162Z,89.20
2018-04-11T00:30:02.687Z,90.00
2018-04-11T00:32:30.811Z,89.30
2018-04-11T00:34:58.395Z,90.20
2018-04-11T00:37:26.726Z,90.60
2018-04-11T00:39:54.273Z,90.60
2018-04-11T00:42:21.785Z,90.50
2018-04-11T00:44:50.079Z,90.50
2018-04-11T00:47:18.358Z,90.90
2018-04-11T00:49:46.646Z,90.30
2018-04-11T00:52:14.177Z,90.20
2018-04-11T00:54:42.460Z,90.30
2018-04-11T00:57:10.778Z,90.40
2018-04-11T00:59:38.295Z,90.40
2018-04-11T01:02:06.693Z,90.60
2018-04-11T01:04:34.200Z,90.60
2018-04-11T01:07:01.721Z,90.60
2018-04-11T01:09:29.250Z,90.90
2018-04-11T01:11:57.529Z,90.70
2018-04-11T01:14:25.804Z,90.60
2018-04-11T01:16:54.091Z,90.30
2018-04-11T01:19:21.613Z,90.20
2018-04-11T01:21:49.154Z,90.70
2018-04-11T01:24:16.697Z,90.50
2018-04-11T01:26:44.213Z,90.10
2018-04-11T01:29:12.490Z,90.00
2018-04-11T01:31:40.771Z,90.30
2018-04-11T01:34:09.708Z,90.20
2018-04-11T01:36:37.952Z,90.20
2018-04-11T01:39:05.459Z,90.00
2018-04-11T01:41:32.988Z,89.10
2018-04-11T01:44:00.543Z,89.50
2018-04-11T01:46:28.062Z,89.80
2018-04-11T01:48:56.347Z,90.40
2018-04-11T01:51:24.622Z,90.70
2018-04-11T01:53:52.905Z,90.30
2018-04-11T01:56:21.178Z,90.30
2018-04-11T01:58:49.460Z,89.70
2018-04-11T02:01:16.968Z,89.70
2018-04-11T02:03:44.478Z,89.30
2018-04-11T02:06:12.004Z,89.50
2018-04-11T02:08:39.528Z,90.00
2018-04-11T02:11:07.029Z,89.60
2018-04-11T02:13:34.534Z,89.80
2018-04-11T02:16:02.059Z,90.30
2018-04-11T02:18:30.350Z,90.10
2018-04-11T02:20:57.871Z,90.10
2018-04-11T02:23:25.383Z,90.30
2018-04-11T02:25:53.815Z,90.10
2018-04-11T02:28:21.374Z,90.20
2018-04-11T02:30:48.893Z,89.70
2018-04-11T02:33:16.531Z,89.50
2018-04-11T02:35:44.048Z,88.60
2018-04-11T02:38:11.568Z,88.50
2018-04-11T02:40:39.185Z,89.60
2018-04-11T02:43:07.651Z,90.40
2018-04-11T02:45:35.171Z,90.40
2018-04-11T02:48:02.782Z,90.10
2018-04-11T02:50:31.066Z,90.20
2018-04-11T02:52:59.341Z,90.50
2018-04-11T02:55:27.621Z,91.00
2018-04-11T02:57:55.894Z,91.10
2018-04-11T03:00:24.167Z,91.20
2018-04-11T03:02:52.452Z,91.20
2018-04-11T03:05:21.010Z,91.10
2018-04-11T03:07:50.188Z,91.20
2018-04-11T03:10:17.701Z,91.20
2018-04-11T03:12:45.214Z,91.40
2018-04-11T03:15:12.736Z,91.10
2018-04-11T03:17:40.241Z,91.00
2018-04-11T03:20:07.758Z,91.00
2018-04-11T03:22:35.288Z,91.20
2018-04-11T03:25:04.222Z,91.40
2018-04-11T03:27:31.777Z,91.30
2018-04-11T03:29:59.576Z,91.30
2018-04-11T03:32:27.898Z,91.40
2018-04-11T03:34:55.422Z,91.40
2018-04-11T03:37:23.722Z,91.60
2018-04-11T03:39:51.230Z,91.60
2018-04-11T03:42:18.760Z,91.90
2018-04-11T03:44:47.203Z,92.50
2018-04-11T03:47:15.587Z,92.40
2018-04-11T03:49:43.858Z,92.60
2018-04-11T03:52:12.150Z,92.50
2018-04-11T03:54:39.662Z,92.40
2018-04-11T03:57:07.186Z,92.70
2018-04-11T03:59:34.934Z,92.00
2018-04-11T04:02:02.576Z,92.00
2018-04-11T04:04:30.851Z,91.40
2018-04-11T04:06:59.153Z,90.90
2018-04-11T04:09:26.662Z,90.80
2018-04-11T04:11:54.215Z,90.90
2018-04-11T04:14:33.862Z,90.60
2018-04-11T04:17:13.429Z,90.80
2018-04-11T04:19:53.577Z,90.70
2018-04-11T04:22:21.902Z,90.90
2018-04-11T04:24:49.421Z,90.80
2018-04-11T04:27:17.695Z,91.20
2018-04-11T04:29:45.971Z,91.20
2018-04-11T04:32:14.244Z,92.00
2018-04-11T04:34:42.532Z,92.20
2018-04-11T04:37:10.898Z,91.00
2018-04-11T04:39:39.194Z,91.20
2018-04-11T04:42:07.511Z,91.10
2018-04-11T04:44:35.838Z,91.10
2018-04-11T04:47:05.090Z,90.70
2018-04-11T04:49:33.413Z,90.70
2018-04-11T04:52:01.920Z,90.70
2018-04-11T04:54:29.436Z,90.70
2018-04-11T04:56:57.709Z,91.40
2018-04-11T04:59:25.392Z,91.90
2018-04-11T05:01:53.779Z,92.30
2018-04-11T05:04:22.091Z,92.20
2018-04-11T05:06:49.605Z,92.20
2018-04-11T05:09:17.889Z,92.10
2018-04-11T05:11:46.165Z,91.80
2018-04-11T05:14:14.465Z,91.30
2018-04-11T05:16:41.987Z,91.30
2018-04-11T05:19:10.282Z,91.50
2018-04-11T05:21:38.056Z,91.40
2018-04-11T05:24:05.578Z,92.10
2018-04-11T05:26:34.619Z,92.30
2018-04-11T05:29:02.254Z,92.30
2018-04-11T05:31:31.414Z,92.90
2018-04-11T05:33:58.940Z,92.90
2018-04-11T05:36:26.558Z,93.10
2018-04-11T05:38:54.860Z,92.10
2018-04-11T05:41:22.434Z,92.00
2018-04-11T05:43:50.119Z,92.00
2018-04-11T05:46:17.641Z,91.70
2018-04-11T05:48:45.899Z,91.50
2018-04-11T05:51:14.197Z,91.90
2018-04-11T05:53:42.307Z,91.90
2018-04-11T05:56:09.823Z,92.00
2018-04-11T05:58:37.343Z,92.30
2018-04-11T06:01:04.922Z,92.90
2018-04-11T06:03:32.460Z,92.60
2018-04-11T06:06:00.100Z,92.10
2018-04-11T06:08:27.843Z,91.50
2018-04-11T06:10:55.394Z,91.00
2018-04-11T06:13:22.929Z,90.90
2018-04-11T06:15:51.201Z,90.60
2018-04-11T06:18:19.473Z,90.40
2018-04-11T06:20:48.041Z,90.40
2018-04-11T06:23:15.552Z,90.30
2018-04-11T06:25:43.095Z,90.10
2018-04-11T06:28:10.991Z,89.40
2018-04-11T06:30:38.525Z,90.40
2018-04-11T06:33:06.042Z,90.40
2018-04-11T06:35:33.577Z,90.60
2018-04-11T06:38:01.170Z,90.70
2018-04-11T06:40:28.829Z,90.70
2018-04-11T06:42:56.356Z,90.30
2018-04-11T06:45:23.881Z,90.00
2018-04-11T06:47:51.414Z,89.70
2018-04-11T06:50:20.162Z,90.00
2018-04-11T06:52:47.777Z,89.90
2018-04-11T06:55:15.347Z,88.50
2018-04-11T06:57:43.616Z,86.00
2018-04-11T07:00:11.200Z,86.00
2018-04-11T07:02:38.916Z,85.90
2018-04-11T07:05:06.436Z,85.80
2018-04-11T07:07:33.981Z,85.50
2018-04-11T07:10:01.499Z,85.40
2018-04-11T07:12:29.784Z,85.10
2018-04-11T07:14:58.089Z,84.70
2018-04-11T07:17:25.619Z,84.60
2018-04-11T07:19:53.934Z,83.90
2018-04-11T07:22:21.483Z,83.80
2018-04-11T07:24:49.036Z,82.00
2018-04-11T07:27:16.563Z,80.70
2018-04-11T07:29:44.842Z,80.00
2018-04-11T07:32:13.256Z,81.30
2018-04-11T07:34:40.854Z,81.30
2018-04-11T07:37:08.391Z,77.70
2018-04-11T07:39:36.008Z,79.80
2018-04-11T07:42:04.308Z,77.10
2018-04-11T07:44:31.940Z,77.00
2018-04-11T07:47:00.221Z,76.50
2018-04-11T07:49:28.502Z,76.60
2018-04-11T07:51:56.816Z,76.20
2018-04-11T07:54:24.337Z,76.10
2018-04-11T07:56:51.890Z,75.20
2018-04-11T07:59:20.277Z,72.20
2018-04-11T08:01:48.593Z,72.80
2018-04-11T08:04:16.112Z,72.80
2018-04-11T08:06:44.411Z,70.80
2018-04-11T08:09:12.044Z,70.70
2018-04-11T08:11:39.683Z,69.80
2018-04-11T08:14:07.210Z,68.10
2018-04-11T08:16:34.811Z,67.20
2018-04-11T08:19:03.103Z,66.20
2018-04-11T08:21:31.396Z,67.50
2018-04-11T08:23:58.435Z,67.50
2018-04-11T08:26:26.720Z,66.50
2018-04-11T08:28:54.371Z,66.40
2018-04-11T08:31:22.658Z,63.30
2018-04-11T08:33:50.166Z,63.60
2018-04-11T08:36:17.689Z,63.30
2018-04-11T08:38:44.977Z,58.80
2018-04-11T08:41:12.696Z,61.20
2018-04-11T08:43:40.257Z,60.30
2018-04-11T08:46:07.785Z,59.80
2018-04-11T08:48:36.121Z,55.70
2018-04-11T08:51:03.774Z,55.70
2018-04-11T08:53:31.289Z,57.00
2018-04-11T08:55:59.562Z,57.60
2018-04-11T08:58:27.842Z,56.30
2018-04-11T09:00:56.130Z,56.30
2018-04-11T09:03:23.667Z,56.20
2018-04-11T09:05:51.960Z,55.00
2018-04-11T09:08:20.282Z,58.90
2018-04-11T09:10:47.802Z,59.00
2018-04-11T09:13:15.382Z,55.80
2018-04-11T09:15:42.901Z,56.90
2018-04-11T09:18:11.201Z,51.80
2018-04-11T09:20:38.888Z,51.90
2018-04-11T09:23:06.411Z,52.80
2018-04-11T09:25:34.778Z,50.50
2018-04-11T09:28:03.174Z,49.40
2018-04-11T09:30:31.459Z,49.70
2018-04-11T09:32:58.996Z,49.70
2018-04-11T09:35:26.795Z,48.80
2018-04-11T09:37:54.524Z,52.20
2018-04-11T09:40:23.434Z,48.90
2018-04-11T09:42:51.022Z,49.00
2018-04-11T09:45:19.401Z,53.80
2018-04-11T09:47:46.917Z,53.90
2018-04-11T09:50:15.267Z,50.40
2018-04-11T09:52:44.050Z,54.80
2018-04-11T09:55:11.584Z,54.20
2018-04-11T09:57:39.135Z,53.50
2018-04-11T10:00:07.000Z,51.50
2018-04-11T10:02:36.575Z,51.80
2018-04-11T10:05:05.715Z,54.00
2018-04-11T10:07:33.331Z,53.90
2018-04-11T10:10:01.701Z,53.40
2018-04-11T10:12:30.000Z,53.20
2018-04-11T10:14:57.560Z,53.10
2018-04-11T10:17:25.271Z,52.90
2018-04-11T10:19:52.842Z,52.80
2018-04-11T10:22:20.382Z,54.50
2018-04-11T10:24:47.919Z,53.80
2018-04-11T10:27:15.651Z,51.10
2018-04-11T10:29:43.980Z,52.40
2018-04-11T10:32:11.502Z,53.20
2018-04-11T10:34:39.141Z,51.00
2018-04-11T10:37:08.323Z,50.80
2018-04-11T10:39:35.985Z,50.90
2018-04-11T10:42:03.532Z,51.40
2018-04-11T10:44:31.070Z,48.90
2018-04-11T10:46:58.681Z,48.20
2018-04-11T10:49:26.997Z,50.50
2018-04-11T10:51:54.527Z,50.40
2018-04-11T10:54:22.821Z,49.10
2018-04-11T10:56:50.368Z,49.10
2018-04-11T10:59:18.911Z,48.90
2018-04-11T11:01:46.430Z,48.80
2018-04-11T11:04:14.574Z,49.00
2018-04-11T11:06:42.854Z,49.50
2018-04-11T11:09:11.151Z,49.70
2018-04-11T11:11:38.727Z,49.70
2018-04-11T11:14:06.475Z,48.60
2018-04-11T11:16:36.587Z,48.10
2018-04-11T11:19:04.117Z,48.00
2018-04-11T11:21:32.409Z,50.50
2018-04-11T11:24:00.697Z,48.10
2018-04-11T11:26:28.220Z,48.10
2018-04-11T11:28:56.111Z,46.40
2018-04-11T11:31:24.398Z,49.60
2018-04-11T11:33:51.935Z,49.50
2018-04-11T11:36:20.221Z,48.20
2018-04-11T11:38:48.528Z,48.00
2018-04-11T11:41:16.043Z,47.90
2018-04-11T11:43:44.525Z,47.20
2018-04-11T11:46:12.831Z,47.60
2018-04-11T11:48:41.067Z,47.50
2018-04-11T11:51:09.352Z,45.20
2018-04-11T11:53:36.871Z,45.00
2018-04-11T11:56:04.388Z,47.40
2018-04-11T11:58:32.950Z,45.70
2018-04-11T12:01:00.470Z,45.60
2018-04-11T12:03:27.987Z,46.00
2018-04-11T12:05:56.305Z,46.20
2018-04-11T12:08:23.835Z,46.30
2018-04-11T12:10:51.347Z,47.60
2018-04-11T12:13:18.883Z,47.10
2018-04-11T12:15:46.401Z,46.80
2018-04-11T12:18:14.718Z,48.80
2018-04-11T12:20:42.267Z,48.80
2018-04-11T12:23:09.829Z,50.10
2018-04-11T12:25:37.467Z,48.80
2018-04-11T12:28:05.088Z,45.60
2018-04-11T12:30:32.614Z,47.20
2018-04-11T12:33:00.156Z,45.00
2018-04-11T12:35:27.717Z,46.50
2018-04-11T12:37:55.251Z,46.10
2018-04-11T12:40:23.576Z,45.40
2018-04-11T12:42:51.155Z,45.40
2018-04-11T12:45:18.747Z,46.90
2018-04-11T12:47:47.136Z,46.60
2018-04-11T12:50:14.679Z,46.70
2018-04-11T12:52:42.956Z,42.30
2018-04-11T12:55:11.318Z,45.80
2018-04-11T12:57:38.865Z,45.90
2018-04-11T13:00:06.438Z,43.00
2018-04-11T13:02:33.963Z,42.40
2018-04-11T13:05:02.326Z,40.80
2018-04-11T13:07:29.939Z,42.20
2018-04-11T13:09:57.486Z,40.20
2018-04-11T13:12:25.877Z,41.00
2018-04-11T13:14:53.475Z,41.00
2018-04-11T13:17:21.118Z,44.90
2018-04-11T13:19:49.427Z,45.80
2018-04-11T13:22:16.956Z,45.80
2018-04-11T13:24:45.237Z,48.70
2018-04-11T13:27:13.225Z,48.70
2018-04-11T13:29:40.812Z,47.30
2018-04-11T13:32:08.308Z,48.30
2018-04-11T13:34:36.594Z,48.10
2018-04-11T13:37:04.896Z,50.70
2018-04-11T13:39:32.490Z,50.70
2018-04-11T13:42:00.015Z,49.40
2018-04-11T13:44:27.540Z,49.00
2018-04-11T13:46:55.890Z,49.10
2018-04-11T13:49:23.615Z,49.00
2018-04-11T13:51:51.138Z,51.10
2018-04-11T13:54:19.421Z,50.10
2018-04-11T13:56:47.703Z,49.20
2018-04-11T13:59:16.474Z,49.50
2018-04-11T14:01:44.768Z,50.20
2018-04-11T14:04:13.050Z,50.20
2018-04-11T14:06:40.598Z,50.20
2018-04-11T14:09:08.899Z,47.80
2018-04-11T14:11:36.428Z,47.70
2018-04-11T14:14:04.724Z,47.60
2018-04-11T14:16:32.255Z,47.50
2018-04-11T14:18:59.880Z,46.90
2018-04-11T14:21:27.397Z,47.90
2018-04-11T14:23:55.049Z,48.80
2018-04-11T14:26:23.951Z,47.30
2018-04-11T14:28:52.194Z,47.10
2018-04-11T14:31:19.752Z,47.40
2018-04-11T14:33:48.277Z,47.60
2018-04-11T14:36:15.920Z,47.60
2018-04-11T14:38:44.200Z,48.30
2018-04-11T14:41:12.481Z,49.50
2018-04-11T14:43:40.911Z,49.50
2018-04-11T14:46:08.504Z,49.30
2018-04-11T14:48:36.792Z,49.00
2018-04-11T14:51:05.071Z,48.00
2018-04-11T14:53:37.463Z,47.90
2018-04-11T14:56:05.199Z,45.20
2018-04-11T14:58:32.734Z,46.20
2018-04-11T15:01:00.252Z,46.80
2018-04-11T15:03:27.892Z,47.00
2018-04-11T15:05:55.433Z,46.50
2018-04-11T15:08:23.725Z,46.70
2018-04-11T15:10:52.016Z,47.50
2018-04-11T15:13:19.533Z,47.50
2018-04-11T15:15:47.225Z,48.80
2018-04-11T15:18:14.752Z,50.20
2018-04-11T15:20:42.280Z,50.80
2018-04-11T15:23:09.833Z,50.10
2018-04-11T15:25:37.779Z,51.50
2018-04-11T15:28:05.347Z,51.10
2018-04-11T15:30:32.873Z,52.60
2018-04-11T15:33:01.152Z,53.30
2018-04-11T15:35:29.467Z,53.80
2018-04-11T15:37:57.090Z,53.70
2018-04-11T15:40:25.547Z,53.30
2018-04-11T15:42:53.127Z,53.30
2018-04-11T15:45:21.985Z,52.50
2018-04-11T15:47:49.543Z,52.50
2018-04-11T15:50:17.072Z,52.50
2018-04-11T15:52:44.647Z,52.80
2018-04-11T15:55:12.405Z,52.40
2018-04-11T15:57:39.936Z,50.50
2018-04-11T16:07:01.141Z,50.20
2018-04-11T16:09:28.665Z,51.00
2018-04-11T16:11:56.194Z,51.80
2018-04-11T16:14:24.687Z,52.60
2018-04-11T16:16:52.980Z,52.60
2018-04-11T16:19:20.526Z,52.60
2018-04-11T16:21:49.447Z,53.40
2018-04-11T16:24:16.978Z,53.30
2018-04-11T16:26:44.874Z,54.40
2018-04-11T16:29:12.423Z,55.30
2018-04-11T16:31:40.142Z,55.30
2018-04-11T16:34:08.781Z,54.70
2018-04-11T16:36:36.324Z,54.60
2018-04-11T16:39:03.860Z,54.90
2018-04-11T16:41:32.191Z,54.10
2018-04-11T16:43:59.835Z,53.90
2018-04-11T16:46:27.857Z,54.90
2018-04-11T16:48:55.475Z,53.90
2018-04-11T16:51:23.018Z,53.20
2018-04-11T16:53:50.657Z,50.60
2018-04-11T16:56:18.203Z,49.80
2018-04-11T16:58:46.507Z,49.30
2018-04-11T17:01:14.246Z,49.30
2018-04-11T17:03:42.658Z,48.80
2018-04-11T17:06:10.190Z,48.70
2018-04-11T17:08:39.396Z,49.00
2018-04-11T17:11:06.914Z,48.90
2018-04-11T17:13:34.498Z,49.10
2018-04-11T17:16:02.898Z,50.40
2018-04-11T17:18:30.415Z,50.40
2018-04-11T17:21:10.610Z,51.10
2018-04-11T17:23:50.040Z,51.00
2018-04-11T17:26:30.278Z,51.60
2018-04-11T17:29:10.386Z,51.90
2018-04-11T17:31:37.980Z,51.80
2018-04-11T17:34:05.608Z,51.90
2018-04-11T17:36:33.154Z,52.30
2018-04-11T17:39:00.786Z,52.60
2018-04-11T17:41:29.084Z,53.30
2018-04-11T17:43:56.626Z,53.20
2018-04-11T17:46:24.911Z,54.10
2018-04-11T17:48:52.444Z,54.10
2018-04-11T17:51:20.761Z,54.70
2018-04-11T17:53:48.305Z,54.60
2018-04-11T17:56:15.880Z,56.00
2018-04-11T17:58:43.411Z,56.00
2018-04-11T18:01:11.724Z,56.40
2018-04-11T18:03:39.287Z,56.40
2018-04-11T18:06:06.849Z,56.80
2018-04-11T18:08:34.380Z,56.80
2018-04-11T18:11:02.030Z,57.10
2018-04-11T18:13:30.323Z,57.90
2018-04-11T18:15:58.055Z,57.90
2018-04-11T18:18:25.535Z,58.20
2018-04-11T18:20:55.644Z,58.60
2018-04-11T18:23:29.462Z,58.50
2018-04-11T18:25:57.044Z,58.40
2018-04-11T18:28:24.619Z,58.70
2018-04-11T18:30:52.972Z,59.10
2018-04-11T18:33:20.518Z,59.10
2018-04-11T18:35:48.062Z,59.40
2018-04-11T18:38:16.353Z,59.60
2018-04-11T18:40:44.674Z,59.70
2018-04-11T18:43:12.289Z,59.70
2018-04-11T18:45:40.649Z,60.50
2018-04-11T18:48:08.995Z,61.30
2018-04-11T18:50:36.562Z,60.40
2018-04-11T18:53:04.108Z,60.90
2018-04-11T18:55:31.763Z,60.90
2018-04-11T18:57:59.314Z,61.30
2018-04-11T19:00:26.845Z,61.80
2018-04-11T19:02:55.147Z,62.20
2018-04-11T19:05:22.752Z,62.20
2018-04-11T19:07:50.468Z,62.50
2018-04-11T19:10:18.723Z,62.60
2018-04-11T19:12:46.289Z,62.70
2018-04-11T19:15:14.018Z,63.20
2018-04-11T19:17:41.535Z,63.20
2018-04-11T19:20:09.050Z,63.50
2018-04-11T19:22:37.347Z,64.00
2018-04-11T19:25:04.942Z,64.00
2018-04-11T19:27:32.461Z,64.00
2018-04-11T19:29:59.985Z,64.20
2018-04-11T19:32:29.034Z,64.60
2018-04-11T19:34:56.586Z,64.60
2018-04-11T19:37:24.195Z,64.60
2018-04-11T19:39:52.536Z,64.60
2018-04-11T19:42:20.107Z,64.60
2018-04-11T19:44:48.546Z,64.70
2018-04-11T19:47:16.928Z,65.00
2018-04-11T19:49:45.341Z,65.20
2018-04-11T19:52:12.875Z,65.70
2018-04-11T19:54:40.433Z,66.00
2018-04-11T19:57:07.990Z,66.30
2018-04-11T19:59:35.562Z,66.50
2018-04-11T20:02:03.097Z,66.60
2018-04-11T20:04:31.520Z,67.50
2018-04-11T20:06:59.326Z,66.70
2018-04-11T20:09:27.683Z,67.40
2018-04-11T20:11:55.246Z,67.30
2018-04-11T20:14:22.815Z,67.70
2018-04-11T20:16:51.341Z,68.60
2018-04-11T20:19:18.876Z,68.60
2018-04-11T20:21:47.775Z,68.80
2018-04-11T20:24:15.294Z,68.70
2018-04-11T20:26:42.880Z,68.90
2018-04-11T20:29:11.223Z,69.30
2018-04-11T20:31:38.752Z,69.30
2018-04-11T20:34:06.285Z,69.60
2018-04-11T20:36:34.585Z,70.20
2018-04-11T20:39:02.107Z,70.20
2018-04-11T20:41:30.455Z,70.50
2018-04-11T20:43:58.579Z,70.40
2018-04-11T20:46:26.131Z,70.70
2018-04-11T20:48:55.024Z,71.50
2018-04-11T20:51:22.593Z,71.40
2018-04-11T20:53:50.133Z,71.80
2018-04-11T20:56:19.283Z,72.80
2018-04-11T20:58:46.826Z,72.70
2018-04-11T21:01:14.362Z,73.10
2018-04-11T21:03:41.920Z,73.50
2018-04-11T21:06:09.949Z,73.90
2018-04-11T21:08:37.567Z,74.10
2018-04-11T21:11:05.114Z,74.20
2018-04-11T21:13:32.631Z,74.50
2018-04-11T21:16:01.227Z,74.70
2018-04-11T21:18:29.574Z,74.80
2018-04-11T21:20:57.103Z,74.80
2018-04-11T21:23:24.686Z,75.30
2018-04-11T21:25:52.714Z,75.60
2018-04-11T21:28:20.346Z,75.80
2018-04-11T21:30:47.883Z,75.80
2018-04-11T21:33:15.421Z,75.80
2018-04-11T21:35:43.569Z,75.60
2018-04-11T21:38:11.873Z,74.60
2018-04-11T21:40:39.453Z,74.50
2018-04-11T21:43:06.999Z,74.40
2018-04-11T21:45:35.459Z,74.80
2018-04-11T21:48:02.990Z,74.70
2018-04-11T21:50:31.286Z,74.90
2018-04-11T21:52:58.859Z,74.90
2018-04-11T21:55:26.383Z,75.10
2018-04-11T21:57:54.839Z,73.80
2018-04-11T22:00:23.164Z,74.20
2018-04-11T22:02:50.698Z,74.30
2018-04-11T22:05:18.997Z,74.20
2018-04-11T22:07:46.524Z,74.10
2018-04-11T22:10:14.120Z,73.70
2018-04-11T22:12:41.666Z,73.70
2018-04-11T22:15:10.033Z,75.30
2018-04-11T22:17:37.544Z,75.30
2018-04-11T22:20:05.277Z,75.40
2018-04-11T22:22:33.502Z,75.10
2018-04-11T22:25:01.032Z,74.60
2018-04-11T22:27:28.553Z,74.00
2018-04-11T22:29:56.128Z,73.90
2018-04-11T22:32:23.671Z,73.80
2018-04-11T22:34:51.966Z,74.00
2018-04-11T22:37:19.510Z,74.00
2018-04-11T22:39:48.544Z,73.30
2018-04-11T22:42:16.072Z,73.30
2018-04-11T22:44:44.043Z,74.10
2018-04-11T22:47:11.570Z,74.00
2018-04-11T22:49:39.155Z,73.70
2018-04-11T22:52:07.484Z,72.90
2018-04-11T22:54:35.021Z,72.90
2018-04-11T22:57:02.576Z,73.40
2018-04-11T22:59:30.205Z,73.90
2018-04-11T23:01:57.762Z,74.10
2018-04-11T23:04:26.080Z,74.10
2018-04-11T23:06:53.682Z,74.00
2018-04-11T23:09:21.314Z,74.80
2018-04-11T23:11:48.853Z,73.60
2018-04-11T23:14:17.082Z,73.50
2018-04-11T23:16:44.639Z,72.60
2018-04-11T23:19:12.347Z,73.00
2018-04-11T23:21:39.891Z,74.10
2018-04-11T23:24:08.205Z,73.70
2018-04-11T23:26:35.721Z,73.60
2018-04-11T23:29:04.235Z,72.80
2018-04-11T23:31:31.762Z,72.80
2018-04-11T23:34:00.061Z,72.40
2018-04-11T23:36:27.595Z,72.30
2018-04-11T23:38:55.950Z,75.00
2018-04-11T23:41:23.568Z,75.00
2018-04-11T23:43:51.105Z,75.40
2018-04-11T23:46:18.624Z,76.70
2018-04-11T23:48:46.154Z,76.50
2018-04-11T23:51:14.111Z,76.00
2018-04-11T23:53:41.686Z,75.50
2018-04-11T23:56:09.230Z,75.90
2018-04-11T23:58:36.788Z,75.10
